sensor_id;sensor_type;location;lat;lon;timestamp;P1;durP1;ratioP1;P2;durP2;ratioP2
36009;SDS011;22076;52.182;5.404;2022-08-01T00:00:47;8.15;;;4.80;;
36009;SDS011;22076;52.182;5.404;2022-08-01T00:03:14;6.60;;;3.88;;
36009;SDS011;22076;52.182;5.404;2022-08-01T00:05:41;5.50;;;3.92;;
36009;SDS011;22076;52.182;5.404;2022-08-01T00:08:09;6.20;;;4.13;;
36009;SDS011;22076;52.182;5.404;2022-08-01T00:10:35;10.02;;;5.43;;
36009;SDS011;22076;52.182;5.404;2022-08-01T00:13:02;6.50;;;4.28;;
36009;SDS011;22076;52.182;5.404;2022-08-01T00:15:30;8.15;;;4.65;;
36009;SDS011;22076;52.182;5.404;2022-08-01T00:17:57;7.47;;;4.05;;
36009;SDS011;22076;52.182;5.404;2022-08-01T00:20:24;8.10;;;4.53;;
36009;SDS011;22076;52.182;5.404;2022-08-01T00:22:51;8.02;;;4.30;;
36009;SDS011;22076;52.182;5.404;2022-08-01T00:25:17;7.65;;;4.82;;
36009;SDS011;22076;52.182;5.404;2022-08-01T00:27:44;9.60;;;4.35;;
36009;SDS011;22076;52.182;5.404;2022-08-01T00:30:11;5.30;;;3.80;;
36009;SDS011;22076;52.182;5.404;2022-08-01T00:32:39;7.07;;;4.93;;
36009;SDS011;22076;52.182;5.404;2022-08-01T00:35:07;6.68;;;4.55;;
36009;SDS011;22076;52.182;5.404;2022-08-01T00:37:33;8.65;;;4.78;;
36009;SDS011;22076;52.182;5.404;2022-08-01T00:40:00;6.93;;;4.05;;
36009;SDS011;22076;52.182;5.404;2022-08-01T00:42:27;8.52;;;5.20;;
36009;SDS011;22076;52.182;5.404;2022-08-01T00:44:53;5.43;;;3.80;;
36009;SDS011;22076;52.182;5.404;2022-08-01T00:47:20;7.72;;;4.55;;
36009;SDS011;22076;52.182;5.404;2022-08-01T00:49:48;6.93;;;4.22;;
36009;SDS011;22076;52.182;5.404;2022-08-01T00:52:15;5.07;;;3.47;;
36009;SDS011;22076;52.182;5.404;2022-08-01T00:54:42;5.50;;;3.22;;
36009;SDS011;22076;52.182;5.404;2022-08-01T00:57:08;6.03;;;3.70;;
36009;SDS011;22076;52.182;5.404;2022-08-01T00:59:36;8.50;;;4.72;;
36009;SDS011;22076;52.182;5.404;2022-08-01T01:02:04;5.43;;;3.22;;
36009;SDS011;22076;52.182;5.404;2022-08-01T01:04:31;8.88;;;4.25;;
36009;SDS011;22076;52.182;5.404;2022-08-01T01:07:01;4.65;;;2.78;;
36009;SDS011;22076;52.182;5.404;2022-08-01T01:09:34;6.07;;;3.95;;
36009;SDS011;22076;52.182;5.404;2022-08-01T01:12:10;9.68;;;4.30;;
36009;SDS011;22076;52.182;5.404;2022-08-01T01:14:42;4.70;;;2.95;;
36009;SDS011;22076;52.182;5.404;2022-08-01T01:17:12;6.63;;;3.78;;
36009;SDS011;22076;52.182;5.404;2022-08-01T01:19:43;7.63;;;4.38;;
36009;SDS011;22076;52.182;5.404;2022-08-01T01:22:27;7.43;;;4.90;;
36009;SDS011;22076;52.182;5.404;2022-08-01T01:25:09;3.92;;;2.85;;
36009;SDS011;22076;52.182;5.404;2022-08-01T01:27:57;9.57;;;4.63;;
36009;SDS011;22076;52.182;5.404;2022-08-01T01:30:30;9.40;;;4.80;;
36009;SDS011;22076;52.182;5.404;2022-08-01T01:32:58;7.75;;;3.90;;
36009;SDS011;22076;52.182;5.404;2022-08-01T01:35:27;5.32;;;3.03;;
36009;SDS011;22076;52.182;5.404;2022-08-01T01:37:58;3.38;;;2.67;;
36009;SDS011;22076;52.182;5.404;2022-08-01T01:40:26;4.35;;;2.13;;
36009;SDS011;22076;52.182;5.404;2022-08-01T01:42:54;3.03;;;2.30;;
36009;SDS011;22076;52.182;5.404;2022-08-01T01:45:24;3.67;;;2.38;;
36009;SDS011;22076;52.182;5.404;2022-08-01T01:47:53;5.68;;;2.83;;
36009;SDS011;22076;52.182;5.404;2022-08-01T01:50:20;5.00;;;3.17;;
36009;SDS011;22076;52.182;5.404;2022-08-01T01:52:48;6.50;;;4.38;;
36009;SDS011;22076;52.182;5.404;2022-08-01T01:55:16;3.70;;;2.67;;
36009;SDS011;22076;52.182;5.404;2022-08-01T01:57:45;4.00;;;3.00;;
36009;SDS011;22076;52.182;5.404;2022-08-01T02:00:12;4.40;;;2.88;;
36009;SDS011;22076;52.182;5.404;2022-08-01T02:02:42;5.45;;;3.50;;
36009;SDS011;22076;52.182;5.404;2022-08-01T02:05:11;5.43;;;3.65;;
36009;SDS011;22076;52.182;5.404;2022-08-01T02:07:38;6.60;;;4.20;;
36009;SDS011;22076;52.182;5.404;2022-08-01T02:10:06;8.13;;;4.07;;
36009;SDS011;22076;52.182;5.404;2022-08-01T02:12:36;6.88;;;4.47;;
36009;SDS011;22076;52.182;5.404;2022-08-01T02:15:04;8.38;;;5.57;;
36009;SDS011;22076;52.182;5.404;2022-08-01T02:17:36;9.23;;;6.03;;
36009;SDS011;22076;52.182;5.404;2022-08-01T02:20:04;7.13;;;4.18;;
36009;SDS011;22076;52.182;5.404;2022-08-01T02:22:33;9.23;;;6.30;;
36009;SDS011;22076;52.182;5.404;2022-08-01T02:25:03;5.18;;;3.10;;
36009;SDS011;22076;52.182;5.404;2022-08-01T02:27:34;11.55;;;5.38;;
36009;SDS011;22076;52.182;5.404;2022-08-01T02:30:05;5.40;;;3.95;;
36009;SDS011;22076;52.182;5.404;2022-08-01T02:32:34;4.63;;;3.08;;
36009;SDS011;22076;52.182;5.404;2022-08-01T02:35:03;5.68;;;3.88;;
36009;SDS011;22076;52.182;5.404;2022-08-01T02:37:34;5.63;;;3.50;;
36009;SDS011;22076;52.182;5.404;2022-08-01T02:40:03;10.07;;;5.75;;
36009;SDS011;22076;52.182;5.404;2022-08-01T02:42:32;9.27;;;5.13;;
36009;SDS011;22076;52.182;5.404;2022-08-01T02:45:01;6.10;;;4.32;;
36009;SDS011;22076;52.182;5.404;2022-08-01T02:47:29;7.63;;;4.82;;
36009;SDS011;22076;52.182;5.404;2022-08-01T02:49:57;5.78;;;3.53;;
36009;SDS011;22076;52.182;5.404;2022-08-01T02:52:25;5.90;;;4.00;;
36009;SDS011;22076;52.182;5.404;2022-08-01T02:54:55;6.55;;;4.35;;
36009;SDS011;22076;52.182;5.404;2022-08-01T02:57:22;7.18;;;3.30;;
36009;SDS011;22076;52.182;5.404;2022-08-01T02:59:49;8.90;;;5.15;;
36009;SDS011;22076;52.182;5.404;2022-08-01T03:02:17;4.80;;;3.22;;
36009;SDS011;22076;52.182;5.404;2022-08-01T03:04:44;4.70;;;2.85;;
36009;SDS011;22076;52.182;5.404;2022-08-01T03:07:12;5.63;;;3.45;;
36009;SDS011;22076;52.182;5.404;2022-08-01T03:09:39;4.85;;;3.08;;
36009;SDS011;22076;52.182;5.404;2022-08-01T03:12:13;5.97;;;3.40;;
36009;SDS011;22076;52.182;5.404;2022-08-01T03:14:42;8.30;;;4.72;;
36009;SDS011;22076;52.182;5.404;2022-08-01T03:17:09;11.65;;;5.97;;
36009;SDS011;22076;52.182;5.404;2022-08-01T03:19:37;5.32;;;4.00;;
36009;SDS011;22076;52.182;5.404;2022-08-01T03:22:05;4.85;;;3.40;;
36009;SDS011;22076;52.182;5.404;2022-08-01T03:24:33;3.25;;;2.50;;
36009;SDS011;22076;52.182;5.404;2022-08-01T03:27:00;4.70;;;3.50;;
36009;SDS011;22076;52.182;5.404;2022-08-01T03:29:30;8.52;;;4.85;;
36009;SDS011;22076;52.182;5.404;2022-08-01T03:31:58;9.88;;;5.47;;
36009;SDS011;22076;52.182;5.404;2022-08-01T03:34:26;6.40;;;3.40;;
36009;SDS011;22076;52.182;5.404;2022-08-01T03:36:56;5.97;;;4.05;;
36009;SDS011;22076;52.182;5.404;2022-08-01T03:39:28;7.30;;;4.75;;
36009;SDS011;22076;52.182;5.404;2022-08-01T03:42:01;5.75;;;2.97;;
36009;SDS011;22076;52.182;5.404;2022-08-01T03:44:32;5.40;;;3.83;;
36009;SDS011;22076;52.182;5.404;2022-08-01T03:47:00;7.50;;;3.60;;
36009;SDS011;22076;52.182;5.404;2022-08-01T03:49:31;5.05;;;3.60;;
36009;SDS011;22076;52.182;5.404;2022-08-01T03:51:59;13.32;;;7.00;;
36009;SDS011;22076;52.182;5.404;2022-08-01T03:54:28;7.72;;;5.32;;
36009;SDS011;22076;52.182;5.404;2022-08-01T03:56:58;9.23;;;5.78;;
36009;SDS011;22076;52.182;5.404;2022-08-01T03:59:26;5.38;;;3.78;;
36009;SDS011;22076;52.182;5.404;2022-08-01T04:01:54;5.03;;;3.38;;
36009;SDS011;22076;52.182;5.404;2022-08-01T04:04:21;6.43;;;3.30;;
36009;SDS011;22076;52.182;5.404;2022-08-01T04:06:48;7.20;;;4.10;;
36009;SDS011;22076;52.182;5.404;2022-08-01T04:09:18;3.17;;;2.53;;
36009;SDS011;22076;52.182;5.404;2022-08-01T04:11:45;4.95;;;3.50;;
36009;SDS011;22076;52.182;5.404;2022-08-01T04:14:12;6.25;;;3.40;;
36009;SDS011;22076;52.182;5.404;2022-08-01T04:16:38;4.97;;;3.70;;
36009;SDS011;22076;52.182;5.404;2022-08-01T04:19:06;11.65;;;6.50;;
36009;SDS011;22076;52.182;5.404;2022-08-01T04:21:33;4.22;;;3.50;;
36009;SDS011;22076;52.182;5.404;2022-08-01T04:24:01;9.23;;;4.68;;
36009;SDS011;22076;52.182;5.404;2022-08-01T04:26:31;4.32;;;3.50;;
36009;SDS011;22076;52.182;5.404;2022-08-01T04:28:58;5.68;;;3.30;;
36009;SDS011;22076;52.182;5.404;2022-08-01T04:31:27;6.25;;;3.08;;
36009;SDS011;22076;52.182;5.404;2022-08-01T04:33:55;3.78;;;2.85;;
36009;SDS011;22076;52.182;5.404;2022-08-01T04:36:23;5.25;;;2.75;;
36009;SDS011;22076;52.182;5.404;2022-08-01T04:38:52;2.70;;;1.98;;
36009;SDS011;22076;52.182;5.404;2022-08-01T04:41:21;2.88;;;1.70;;
36009;SDS011;22076;52.182;5.404;2022-08-01T04:43:48;2.08;;;1.80;;
36009;SDS011;22076;52.182;5.404;2022-08-01T04:46:16;2.25;;;1.63;;
36009;SDS011;22076;52.182;5.404;2022-08-01T04:48:43;3.92;;;1.83;;
36009;SDS011;22076;52.182;5.404;2022-08-01T04:51:11;3.20;;;2.10;;
36009;SDS011;22076;52.182;5.404;2022-08-01T04:53:41;2.80;;;1.70;;
36009;SDS011;22076;52.182;5.404;2022-08-01T04:56:08;1.50;;;1.40;;
36009;SDS011;22076;52.182;5.404;2022-08-01T04:58:37;2.05;;;1.67;;
36009;SDS011;22076;52.182;5.404;2022-08-01T05:01:04;4.15;;;1.83;;
36009;SDS011;22076;52.182;5.404;2022-08-01T05:03:32;2.15;;;1.80;;
36009;SDS011;22076;52.182;5.404;2022-08-01T05:05:59;1.60;;;1.30;;
36009;SDS011;22076;52.182;5.404;2022-08-01T05:08:25;1.92;;;1.65;;
36009;SDS011;22076;52.182;5.404;2022-08-01T05:10:54;3.00;;;2.05;;
36009;SDS011;22076;52.182;5.404;2022-08-01T05:13:20;2.50;;;1.45;;
36009;SDS011;22076;52.182;5.404;2022-08-01T05:15:47;1.73;;;1.52;;
36009;SDS011;22076;52.182;5.404;2022-08-01T05:18:14;2.22;;;1.70;;
36009;SDS011;22076;52.182;5.404;2022-08-01T05:20:43;5.10;;;1.67;;
36009;SDS011;22076;52.182;5.404;2022-08-01T05:23:09;3.35;;;1.88;;
36009;SDS011;22076;52.182;5.404;2022-08-01T05:25:40;2.22;;;1.48;;
36009;SDS011;22076;52.182;5.404;2022-08-01T05:28:08;2.70;;;2.05;;
36009;SDS011;22076;52.182;5.404;2022-08-01T05:30:38;2.60;;;1.83;;
36009;SDS011;22076;52.182;5.404;2022-08-01T05:33:05;2.80;;;2.33;;
36009;SDS011;22076;52.182;5.404;2022-08-01T05:35:32;2.35;;;1.75;;
36009;SDS011;22076;52.182;5.404;2022-08-01T05:37:58;3.70;;;2.40;;
36009;SDS011;22076;52.182;5.404;2022-08-01T05:40:25;1.65;;;1.55;;
36009;SDS011;22076;52.182;5.404;2022-08-01T05:42:52;2.25;;;1.50;;
36009;SDS011;22076;52.182;5.404;2022-08-01T05:45:20;1.90;;;1.20;;
36009;SDS011;22076;52.182;5.404;2022-08-01T05:47:46;1.40;;;1.30;;
36009;SDS011;22076;52.182;5.404;2022-08-01T05:50:13;2.20;;;1.40;;
36009;SDS011;22076;52.182;5.404;2022-08-01T05:52:40;1.55;;;1.30;;
36009;SDS011;22076;52.182;5.404;2022-08-01T05:55:08;1.67;;;1.35;;
36009;SDS011;22076;52.182;5.404;2022-08-01T05:57:35;2.55;;;1.27;;
36009;SDS011;22076;52.182;5.404;2022-08-01T06:00:02;2.67;;;2.20;;
36009;SDS011;22076;52.182;5.404;2022-08-01T06:02:30;3.13;;;1.83;;
36009;SDS011;22076;52.182;5.404;2022-08-01T06:04:57;2.63;;;2.20;;
36009;SDS011;22076;52.182;5.404;2022-08-01T06:07:24;2.72;;;2.47;;
36009;SDS011;22076;52.182;5.404;2022-08-01T06:09:50;1.65;;;1.45;;
36009;SDS011;22076;52.182;5.404;2022-08-01T06:12:17;2.45;;;1.55;;
36009;SDS011;22076;52.182;5.404;2022-08-01T06:14:45;3.53;;;1.50;;
36009;SDS011;22076;52.182;5.404;2022-08-01T06:17:13;2.83;;;2.03;;
36009;SDS011;22076;52.182;5.404;2022-08-01T06:19:43;1.77;;;1.50;;
36009;SDS011;22076;52.182;5.404;2022-08-01T06:22:10;2.25;;;1.67;;
36009;SDS011;22076;52.182;5.404;2022-08-01T06:24:37;1.50;;;1.40;;
36009;SDS011;22076;52.182;5.404;2022-08-01T06:27:03;2.95;;;1.88;;
36009;SDS011;22076;52.182;5.404;2022-08-01T06:29:30;2.45;;;1.60;;
36009;SDS011;22076;52.182;5.404;2022-08-01T06:31:57;4.10;;;2.10;;
36009;SDS011;22076;52.182;5.404;2022-08-01T06:34:23;4.90;;;2.67;;
36009;SDS011;22076;52.182;5.404;2022-08-01T06:36:51;4.57;;;3.08;;
36009;SDS011;22076;52.182;5.404;2022-08-01T06:39:18;10.02;;;3.00;;
36009;SDS011;22076;52.182;5.404;2022-08-01T06:41:45;3.90;;;2.88;;
36009;SDS011;22076;52.182;5.404;2022-08-01T06:44:12;5.13;;;3.05;;
36009;SDS011;22076;52.182;5.404;2022-08-01T06:46:38;5.57;;;3.92;;
36009;SDS011;22076;52.182;5.404;2022-08-01T06:49:05;5.05;;;2.70;;
36009;SDS011;22076;52.182;5.404;2022-08-01T06:51:31;2.13;;;1.67;;
36009;SDS011;22076;52.182;5.404;2022-08-01T06:54:00;3.80;;;2.20;;
36009;SDS011;22076;52.182;5.404;2022-08-01T06:56:26;2.08;;;1.60;;
36009;SDS011;22076;52.182;5.404;2022-08-01T06:58:53;2.58;;;2.05;;
36009;SDS011;22076;52.182;5.404;2022-08-01T07:01:24;2.97;;;1.90;;
36009;SDS011;22076;52.182;5.404;2022-08-01T07:03:50;4.03;;;3.03;;
36009;SDS011;22076;52.182;5.404;2022-08-01T07:06:17;2.88;;;1.88;;
36009;SDS011;22076;52.182;5.404;2022-08-01T07:08:44;6.82;;;2.58;;
36009;SDS011;22076;52.182;5.404;2022-08-01T07:11:12;2.45;;;1.88;;
36009;SDS011;22076;52.182;5.404;2022-08-01T07:13:40;1.88;;;1.63;;
36009;SDS011;22076;52.182;5.404;2022-08-01T07:16:06;1.70;;;1.33;;
36009;SDS011;22076;52.182;5.404;2022-08-01T07:18:34;4.10;;;3.30;;
36009;SDS011;22076;52.182;5.404;2022-08-01T07:21:07;5.47;;;2.83;;
36009;SDS011;22076;52.182;5.404;2022-08-01T07:23:35;6.05;;;3.65;;
36009;SDS011;22076;52.182;5.404;2022-08-01T07:26:02;6.22;;;2.85;;
36009;SDS011;22076;52.182;5.404;2022-08-01T07:28:31;7.93;;;3.67;;
36009;SDS011;22076;52.182;5.404;2022-08-01T07:31:01;6.78;;;3.47;;
36009;SDS011;22076;52.182;5.404;2022-08-01T07:33:28;9.73;;;3.13;;
36009;SDS011;22076;52.182;5.404;2022-08-01T07:35:54;15.77;;;3.67;;
36009;SDS011;22076;52.182;5.404;2022-08-01T07:38:21;17.45;;;4.22;;
36009;SDS011;22076;52.182;5.404;2022-08-01T07:40:49;15.50;;;3.53;;
36009;SDS011;22076;52.182;5.404;2022-08-01T07:43:21;12.60;;;3.90;;
36009;SDS011;22076;52.182;5.404;2022-08-01T07:45:49;14.73;;;3.53;;
36009;SDS011;22076;52.182;5.404;2022-08-01T07:48:16;14.20;;;2.90;;
36009;SDS011;22076;52.182;5.404;2022-08-01T07:50:44;18.98;;;4.30;;
36009;SDS011;22076;52.182;5.404;2022-08-01T07:53:12;14.93;;;4.07;;
36009;SDS011;22076;52.182;5.404;2022-08-01T07:55:38;14.35;;;3.70;;
36009;SDS011;22076;52.182;5.404;2022-08-01T07:58:05;13.00;;;4.30;;
36009;SDS011;22076;52.182;5.404;2022-08-01T08:00:32;13.25;;;4.18;;
36009;SDS011;22076;52.182;5.404;2022-08-01T08:03:00;13.55;;;4.00;;
36009;SDS011;22076;52.182;5.404;2022-08-01T08:05:26;13.45;;;4.28;;
36009;SDS011;22076;52.182;5.404;2022-08-01T08:07:53;12.55;;;3.30;;
36009;SDS011;22076;52.182;5.404;2022-08-01T08:10:20;21.77;;;4.50;;
36009;SDS011;22076;52.182;5.404;2022-08-01T08:12:47;10.65;;;3.70;;
36009;SDS011;22076;52.182;5.404;2022-08-01T08:15:14;15.02;;;3.10;;
36009;SDS011;22076;52.182;5.404;2022-08-01T08:17:41;6.72;;;3.00;;
36009;SDS011;22076;52.182;5.404;2022-08-01T08:20:11;18.67;;;3.78;;
36009;SDS011;22076;52.182;5.404;2022-08-01T08:22:38;18.65;;;3.40;;
36009;SDS011;22076;52.182;5.404;2022-08-01T08:25:06;14.15;;;4.15;;
36009;SDS011;22076;52.182;5.404;2022-08-01T08:27:33;11.15;;;3.67;;
36009;SDS011;22076;52.182;5.404;2022-08-01T08:30:02;10.65;;;3.83;;
36009;SDS011;22076;52.182;5.404;2022-08-01T08:32:30;10.05;;;3.55;;
36009;SDS011;22076;52.182;5.404;2022-08-01T08:34:57;17.92;;;4.10;;
36009;SDS011;22076;52.182;5.404;2022-08-01T08:37:25;14.77;;;4.25;;
36009;SDS011;22076;52.182;5.404;2022-08-01T08:39:52;12.98;;;3.53;;
36009;SDS011;22076;52.182;5.404;2022-08-01T08:42:18;12.57;;;3.95;;
36009;SDS011;22076;52.182;5.404;2022-08-01T08:44:45;14.85;;;3.10;;
36009;SDS011;22076;52.182;5.404;2022-08-01T08:47:12;13.50;;;3.58;;
36009;SDS011;22076;52.182;5.404;2022-08-01T08:49:39;11.98;;;3.53;;
36009;SDS011;22076;52.182;5.404;2022-08-01T08:52:08;12.70;;;2.90;;
36009;SDS011;22076;52.182;5.404;2022-08-01T08:54:37;5.63;;;2.08;;
36009;SDS011;22076;52.182;5.404;2022-08-01T08:57:04;9.00;;;2.58;;
36009;SDS011;22076;52.182;5.404;2022-08-01T08:59:33;10.95;;;2.72;;
36009;SDS011;22076;52.182;5.404;2022-08-01T09:01:59;8.43;;;2.20;;
36009;SDS011;22076;52.182;5.404;2022-08-01T09:04:26;13.82;;;3.42;;
36009;SDS011;22076;52.182;5.404;2022-08-01T09:06:53;8.93;;;3.17;;
36009;SDS011;22076;52.182;5.404;2022-08-01T09:09:20;10.77;;;2.67;;
36009;SDS011;22076;52.182;5.404;2022-08-01T09:11:48;9.18;;;3.03;;
36009;SDS011;22076;52.182;5.404;2022-08-01T09:14:15;8.38;;;2.35;;
36009;SDS011;22076;52.182;5.404;2022-08-01T09:16:59;10.05;;;2.80;;
36009;SDS011;22076;52.182;5.404;2022-08-01T09:19:27;9.82;;;2.78;;
36009;SDS011;22076;52.182;5.404;2022-08-01T09:24:35;10.65;;;2.70;;
36009;SDS011;22076;52.182;5.404;2022-08-01T09:27:15;11.70;;;2.88;;
36009;SDS011;22076;52.182;5.404;2022-08-01T09:29:43;6.82;;;2.42;;
36009;SDS011;22076;52.182;5.404;2022-08-01T09:32:10;12.73;;;2.70;;
36009;SDS011;22076;52.182;5.404;2022-08-01T09:34:37;7.13;;;1.98;;
36009;SDS011;22076;52.182;5.404;2022-08-01T09:37:04;6.35;;;2.22;;
36009;SDS011;22076;52.182;5.404;2022-08-01T09:39:34;7.43;;;1.95;;
36009;SDS011;22076;52.182;5.404;2022-08-01T09:42:19;3.58;;;2.17;;
36009;SDS011;22076;52.182;5.404;2022-08-01T09:44:47;7.65;;;1.98;;
36009;SDS011;22076;52.182;5.404;2022-08-01T09:47:14;4.25;;;1.35;;
36009;SDS011;22076;52.182;5.404;2022-08-01T09:49:42;5.40;;;1.90;;
36009;SDS011;22076;52.182;5.404;2022-08-01T09:52:10;7.35;;;1.65;;
36009;SDS011;22076;52.182;5.404;2022-08-01T09:54:38;7.05;;;2.03;;
36009;SDS011;22076;52.182;5.404;2022-08-01T09:57:12;9.95;;;2.17;;
36009;SDS011;22076;52.182;5.404;2022-08-01T09:59:44;5.50;;;1.52;;
36009;SDS011;22076;52.182;5.404;2022-08-01T10:02:13;4.10;;;1.33;;
36009;SDS011;22076;52.182;5.404;2022-08-01T10:04:48;8.57;;;1.83;;
36009;SDS011;22076;52.182;5.404;2022-08-01T10:07:15;7.20;;;2.03;;
36009;SDS011;22076;52.182;5.404;2022-08-01T10:09:42;10.73;;;2.38;;
36009;SDS011;22076;52.182;5.404;2022-08-01T10:12:10;7.32;;;1.65;;
36009;SDS011;22076;52.182;5.404;2022-08-01T10:14:38;7.05;;;1.38;;
36009;SDS011;22076;52.182;5.404;2022-08-01T10:17:07;9.48;;;2.10;;
36009;SDS011;22076;52.182;5.404;2022-08-01T10:19:36;8.85;;;1.75;;
36009;SDS011;22076;52.182;5.404;2022-08-01T10:22:04;5.88;;;1.90;;
36009;SDS011;22076;52.182;5.404;2022-08-01T10:24:34;8.68;;;1.70;;
36009;SDS011;22076;52.182;5.404;2022-08-01T10:27:03;8.75;;;1.65;;
36009;SDS011;22076;52.182;5.404;2022-08-01T10:29:31;5.22;;;1.58;;
36009;SDS011;22076;52.182;5.404;2022-08-01T10:32:04;9.45;;;2.17;;
36009;SDS011;22076;52.182;5.404;2022-08-01T10:34:32;9.77;;;2.10;;
36009;SDS011;22076;52.182;5.404;2022-08-01T10:37:00;5.25;;;1.52;;
36009;SDS011;22076;52.182;5.404;2022-08-01T10:39:26;7.68;;;2.35;;
36009;SDS011;22076;52.182;5.404;2022-08-01T10:41:56;4.70;;;1.75;;
36009;SDS011;22076;52.182;5.404;2022-08-01T10:44:23;9.23;;;2.80;;
36009;SDS011;22076;52.182;5.404;2022-08-01T10:46:52;8.00;;;2.55;;
36009;SDS011;22076;52.182;5.404;2022-08-01T10:49:22;8.35;;;2.10;;
36009;SDS011;22076;52.182;5.404;2022-08-01T10:51:52;12.20;;;2.40;;
36009;SDS011;22076;52.182;5.404;2022-08-01T10:54:18;8.52;;;1.95;;
36009;SDS011;22076;52.182;5.404;2022-08-01T10:56:46;7.88;;;2.22;;
36009;SDS011;22076;52.182;5.404;2022-08-01T10:59:14;5.25;;;2.05;;
36009;SDS011;22076;52.182;5.404;2022-08-01T11:01:42;7.72;;;2.10;;
36009;SDS011;22076;52.182;5.404;2022-08-01T11:04:10;14.93;;;2.70;;
36009;SDS011;22076;52.182;5.404;2022-08-01T11:06:47;10.60;;;2.45;;
36009;SDS011;22076;52.182;5.404;2022-08-01T11:09:22;9.73;;;2.00;;
36009;SDS011;22076;52.182;5.404;2022-08-01T11:12:01;7.75;;;2.08;;
36009;SDS011;22076;52.182;5.404;2022-08-01T11:14:30;14.80;;;2.63;;
36009;SDS011;22076;52.182;5.404;2022-08-01T11:20:04;7.72;;;1.70;;
36009;SDS011;22076;52.182;5.404;2022-08-01T11:26:13;9.50;;;2.40;;
36009;SDS011;22076;52.182;5.404;2022-08-01T11:28:44;3.72;;;1.60;;
36009;SDS011;22076;52.182;5.404;2022-08-01T11:33:55;6.05;;;1.88;;
36009;SDS011;22076;52.182;5.404;2022-08-01T11:36:21;7.45;;;1.95;;
36009;SDS011;22076;52.182;5.404;2022-08-01T11:38:49;5.72;;;1.92;;
36009;SDS011;22076;52.182;5.404;2022-08-01T11:41:33;6.70;;;1.92;;
36009;SDS011;22076;52.182;5.404;2022-08-01T11:44:01;9.55;;;2.05;;
36009;SDS011;22076;52.182;5.404;2022-08-01T11:46:45;6.90;;;1.80;;
36009;SDS011;22076;52.182;5.404;2022-08-01T11:51:49;5.25;;;1.85;;
36009;SDS011;22076;52.182;5.404;2022-08-01T11:54:24;8.15;;;1.67;;
36009;SDS011;22076;52.182;5.404;2022-08-01T11:56:54;5.28;;;1.48;;
36009;SDS011;22076;52.182;5.404;2022-08-01T11:59:22;2.38;;;1.33;;
36009;SDS011;22076;52.182;5.404;2022-08-01T12:01:49;7.10;;;1.70;;
36009;SDS011;22076;52.182;5.404;2022-08-01T12:04:15;4.47;;;1.52;;
36009;SDS011;22076;52.182;5.404;2022-08-01T12:06:42;2.95;;;1.63;;
36009;SDS011;22076;52.182;5.404;2022-08-01T12:09:16;3.30;;;1.45;;
36009;SDS011;22076;52.182;5.404;2022-08-01T12:11:43;5.80;;;1.45;;
36009;SDS011;22076;52.182;5.404;2022-08-01T12:14:16;5.95;;;1.60;;
36009;SDS011;22076;52.182;5.404;2022-08-01T12:16:48;4.70;;;1.48;;
36009;SDS011;22076;52.182;5.404;2022-08-01T12:19:19;5.15;;;1.35;;
36009;SDS011;22076;52.182;5.404;2022-08-01T12:24:30;8.48;;;1.70;;
36009;SDS011;22076;52.182;5.404;2022-08-01T12:26:57;6.07;;;1.80;;
36009;SDS011;22076;52.182;5.404;2022-08-01T12:29:32;6.70;;;1.50;;
36009;SDS011;22076;52.182;5.404;2022-08-01T12:31:59;4.45;;;1.60;;
36009;SDS011;22076;52.182;5.404;2022-08-01T12:34:27;7.35;;;1.52;;
36009;SDS011;22076;52.182;5.404;2022-08-01T12:36:54;6.03;;;1.27;;
36009;SDS011;22076;52.182;5.404;2022-08-01T12:39:21;4.88;;;1.50;;
36009;SDS011;22076;52.182;5.404;2022-08-01T12:41:48;3.22;;;1.50;;
36009;SDS011;22076;52.182;5.404;2022-08-01T12:44:15;4.78;;;1.58;;
36009;SDS011;22076;52.182;5.404;2022-08-01T12:46:45;4.78;;;1.50;;
36009;SDS011;22076;52.182;5.404;2022-08-01T12:49:11;5.00;;;1.60;;
36009;SDS011;22076;52.182;5.404;2022-08-01T12:51:38;4.75;;;1.17;;
36009;SDS011;22076;52.182;5.404;2022-08-01T12:54:04;5.68;;;1.52;;
36009;SDS011;22076;52.182;5.404;2022-08-01T12:56:35;2.53;;;1.15;;
36009;SDS011;22076;52.182;5.404;2022-08-01T13:01:51;4.38;;;1.13;;
36009;SDS011;22076;52.182;5.404;2022-08-01T13:04:18;2.13;;;0.77;;
36009;SDS011;22076;52.182;5.404;2022-08-01T13:06:45;2.63;;;1.25;;
36009;SDS011;22076;52.182;5.404;2022-08-01T13:09:12;3.08;;;1.10;;
36009;SDS011;22076;52.182;5.404;2022-08-01T13:11:39;4.82;;;1.40;;
36009;SDS011;22076;52.182;5.404;2022-08-01T13:14:09;4.68;;;1.05;;
36009;SDS011;22076;52.182;5.404;2022-08-01T13:16:45;3.88;;;1.00;;
36009;SDS011;22076;52.182;5.404;2022-08-01T13:19:14;3.95;;;1.40;;
36009;SDS011;22076;52.182;5.404;2022-08-01T13:21:52;7.43;;;1.58;;
36009;SDS011;22076;52.182;5.404;2022-08-01T13:24:23;4.03;;;1.30;;
36009;SDS011;22076;52.182;5.404;2022-08-01T13:26:51;5.60;;;1.45;;
36009;SDS011;22076;52.182;5.404;2022-08-01T13:29:21;3.88;;;1.27;;
36009;SDS011;22076;52.182;5.404;2022-08-01T13:31:49;4.32;;;1.10;;
36009;SDS011;22076;52.182;5.404;2022-08-01T13:34:17;4.80;;;1.75;;
36009;SDS011;22076;52.182;5.404;2022-08-01T13:36:43;2.58;;;1.10;;
36009;SDS011;22076;52.182;5.404;2022-08-01T13:39:11;2.75;;;1.05;;
36009;SDS011;22076;52.182;5.404;2022-08-01T13:41:55;6.78;;;1.25;;
36009;SDS011;22076;52.182;5.404;2022-08-01T13:44:22;2.55;;;0.80;;
36009;SDS011;22076;52.182;5.404;2022-08-01T13:46:48;1.75;;;0.90;;
36009;SDS011;22076;52.182;5.404;2022-08-01T13:49:16;1.80;;;0.90;;
36009;SDS011;22076;52.182;5.404;2022-08-01T13:51:43;2.03;;;0.80;;
36009;SDS011;22076;52.182;5.404;2022-08-01T13:54:11;3.05;;;0.98;;
36009;SDS011;22076;52.182;5.404;2022-08-01T13:56:37;3.42;;;1.23;;
36009;SDS011;22076;52.182;5.404;2022-08-01T13:59:04;3.47;;;0.93;;
36009;SDS011;22076;52.182;5.404;2022-08-01T14:01:31;1.83;;;0.80;;
36009;SDS011;22076;52.182;5.404;2022-08-01T14:03:58;3.20;;;1.20;;
36009;SDS011;22076;52.182;5.404;2022-08-01T14:06:26;2.38;;;1.02;;
36009;SDS011;22076;52.182;5.404;2022-08-01T14:08:53;1.85;;;0.85;;
36009;SDS011;22076;52.182;5.404;2022-08-01T14:11:19;4.38;;;1.10;;
36009;SDS011;22076;52.182;5.404;2022-08-01T14:13:46;2.80;;;1.02;;
36009;SDS011;22076;52.182;5.404;2022-08-01T14:16:13;5.30;;;1.17;;
36009;SDS011;22076;52.182;5.404;2022-08-01T14:18:39;4.57;;;1.25;;
36009;SDS011;22076;52.182;5.404;2022-08-01T14:21:06;2.13;;;0.90;;
36009;SDS011;22076;52.182;5.404;2022-08-01T14:23:34;3.28;;;0.90;;
36009;SDS011;22076;52.182;5.404;2022-08-01T14:26:01;3.08;;;1.10;;
36009;SDS011;22076;52.182;5.404;2022-08-01T14:28:28;3.47;;;1.00;;
36009;SDS011;22076;52.182;5.404;2022-08-01T14:30:55;2.65;;;1.05;;
36009;SDS011;22076;52.182;5.404;2022-08-01T14:33:22;5.22;;;1.23;;
36009;SDS011;22076;52.182;5.404;2022-08-01T14:35:48;3.97;;;1.02;;
36009;SDS011;22076;52.182;5.404;2022-08-01T14:38:15;2.92;;;0.68;;
36009;SDS011;22076;52.182;5.404;2022-08-01T14:40:43;3.22;;;1.00;;
36009;SDS011;22076;52.182;5.404;2022-08-01T14:43:11;3.17;;;1.10;;
36009;SDS011;22076;52.182;5.404;2022-08-01T14:45:38;3.80;;;0.90;;
36009;SDS011;22076;52.182;5.404;2022-08-01T14:48:05;4.63;;;1.10;;
36009;SDS011;22076;52.182;5.404;2022-08-01T14:50:32;4.97;;;1.10;;
36009;SDS011;22076;52.182;5.404;2022-08-01T14:52:58;1.88;;;0.90;;
36009;SDS011;22076;52.182;5.404;2022-08-01T14:55:25;4.82;;;1.38;;
36009;SDS011;22076;52.182;5.404;2022-08-01T14:57:53;2.95;;;1.10;;
36009;SDS011;22076;52.182;5.404;2022-08-01T15:00:20;2.72;;;1.27;;
36009;SDS011;22076;52.182;5.404;2022-08-01T15:02:46;3.83;;;1.00;;
36009;SDS011;22076;52.182;5.404;2022-08-01T15:05:13;3.33;;;1.02;;
36009;SDS011;22076;52.182;5.404;2022-08-01T15:07:39;3.80;;;0.90;;
36009;SDS011;22076;52.182;5.404;2022-08-01T15:10:07;2.78;;;0.93;;
36009;SDS011;22076;52.182;5.404;2022-08-01T15:12:34;3.28;;;0.80;;